sensor_id;sensor_type;location;lat;lon;timestamp;temperature;humidity
47576;DHT22;33304;52.456;13.328;2023-02-08T00:00:57;-0.50;35.30
47576;DHT22;33304;52.456;13.328;2023-02-08T00:03:25;-0.50;35.30
47576;DHT22;33304;52.456;13.328;2023-02-08T00:05:54;-0.40;35.30
47576;DHT22;33304;52.456;13.328;2023-02-08T00:08:21;-0.40;35.30
47576;DHT22;33304;52.456;13.328;2023-02-08T00:10:48;-0.40;35.40
47576;DHT22;33304;52.456;13.328;2023-02-08T00:13:15;-0.40;35.30
47576;DHT22;33304;52.456;13.328;2023-02-08T00:15:44;-0.40;35.30
47576;DHT22;33304;52.456;13.328;2023-02-08T00:18:11;-0.30;35.40
47576;DHT22;33304;52.456;13.328;2023-02-08T00:20:39;-0.50;35.30
47576;DHT22;33304;52.456;13.328;2023-02-08T00:23:08;-0.70;35.60
47576;DHT22;33304;52.456;13.328;2023-02-08T00:25:35;-0.80;36.50
47576;DHT22;33304;52.456;13.328;2023-02-08T00:28:03;-0.80;37.20
47576;DHT22;33304;52.456;13.328;2023-02-08T00:30:30;-0.80;37.40
47576;DHT22;33304;52.456;13.328;2023-02-08T00:32:57;-0.90;37.40
47576;DHT22;33304;52.456;13.328;2023-02-08T00:35:26;-1.00;37.80
47576;DHT22;33304;52.456;13.328;2023-02-08T00:37:53;-1.10;38.20
47576;DHT22;33304;52.456;13.328;2023-02-08T00:40:22;-1.10;39.00
47576;DHT22;33304;52.456;13.328;2023-02-08T00:42:49;-1.10;39.20
47576;DHT22;33304;52.456;13.328;2023-02-08T00:45:16;-1.10;39.30
47576;DHT22;33304;52.456;13.328;2023-02-08T00:47:43;-1.10;39.90
47576;DHT22;33304;52.456;13.328;2023-02-08T00:50:10;-1.20;40.00
47576;DHT22;33304;52.456;13.328;2023-02-08T00:52:38;-1.20;39.90
47576;DHT22;33304;52.456;13.328;2023-02-08T00:55:05;-1.20;40.10
47576;DHT22;33304;52.456;13.328;2023-02-08T00:57:34;-1.20;40.30
47576;DHT22;33304;52.456;13.328;2023-02-08T01:00:01;-1.20;40.50
47576;DHT22;33304;52.456;13.328;2023-02-08T01:02:29;-1.10;40.50
47576;DHT22;33304;52.456;13.328;2023-02-08T01:04:56;-1.10;40.60
47576;DHT22;33304;52.456;13.328;2023-02-08T01:07:23;-1.30;40.60
47576;DHT22;33304;52.456;13.328;2023-02-08T01:09:50;-1.30;41.40
47576;DHT22;33304;52.456;13.328;2023-02-08T01:12:18;-1.30;41.90
47576;DHT22;33304;52.456;13.328;2023-02-08T01:14:46;-1.40;42.20
47576;DHT22;33304;52.456;13.328;2023-02-08T01:17:14;-1.30;43.10
47576;DHT22;33304;52.456;13.328;2023-02-08T01:19:41;-1.30;42.90
47576;DHT22;33304;52.456;13.328;2023-02-08T01:22:08;-1.30;43.40
47576;DHT22;33304;52.456;13.328;2023-02-08T01:24:35;-1.30;43.90
47576;DHT22;33304;52.456;13.328;2023-02-08T01:27:03;-1.30;44.00
47576;DHT22;33304;52.456;13.328;2023-02-08T01:29:30;-1.10;43.00
47576;DHT22;33304;52.456;13.328;2023-02-08T01:31:59;-1.20;42.70
47576;DHT22;33304;52.456;13.328;2023-02-08T01:34:28;-1.20;42.70
47576;DHT22;33304;52.456;13.328;2023-02-08T01:36:55;-1.30;43.00
47576;DHT22;33304;52.456;13.328;2023-02-08T01:39:23;-1.30;43.20
47576;DHT22;33304;52.456;13.328;2023-02-08T01:41:51;-1.40;43.20
47576;DHT22;33304;52.456;13.328;2023-02-08T01:47:24;-1.10;42.30
47576;DHT22;33304;52.456;13.328;2023-02-08T01:49:51;-1.00;41.00
47576;DHT22;33304;52.456;13.328;2023-02-08T01:52:20;-1.20;40.70
47576;DHT22;33304;52.456;13.328;2023-02-08T01:54:52;-1.20;41.10
47576;DHT22;33304;52.456;13.328;2023-02-08T01:57:22;-1.20;41.10
47576;DHT22;33304;52.456;13.328;2023-02-08T01:59:51;-1.30;40.50
47576;DHT22;33304;52.456;13.328;2023-02-08T02:02:23;-1.40;40.90
47576;DHT22;33304;52.456;13.328;2023-02-08T02:04:52;-1.40;41.10
47576;DHT22;33304;52.456;13.328;2023-02-08T02:07:21;-1.40;41.20
47576;DHT22;33304;52.456;13.328;2023-02-08T02:09:55;-1.40;40.80
47576;DHT22;33304;52.456;13.328;2023-02-08T02:12:26;-1.50;40.70
47576;DHT22;33304;52.456;13.328;2023-02-08T02:14:54;-1.50;40.90
47576;DHT22;33304;52.456;13.328;2023-02-08T02:17:21;-1.50;40.70
47576;DHT22;33304;52.456;13.328;2023-02-08T02:19:55;-1.50;40.80
47576;DHT22;33304;52.456;13.328;2023-02-08T02:25:44;-1.60;41.00
47576;DHT22;33304;52.456;13.328;2023-02-08T02:28:41;-1.80;40.90
47576;DHT22;33304;52.456;13.328;2023-02-08T02:31:39;-1.80;41.30
47576;DHT22;33304;52.456;13.328;2023-02-08T02:34:14;-1.90;41.10
47576;DHT22;33304;52.456;13.328;2023-02-08T02:36:49;-2.10;42.50
47576;DHT22;33304;52.456;13.328;2023-02-08T02:39:22;-2.00;42.60
47576;DHT22;33304;52.456;13.328;2023-02-08T02:41:56;-2.00;42.00
47576;DHT22;33304;52.456;13.328;2023-02-08T02:44:51;-2.20;42.10
47576;DHT22;33304;52.456;13.328;2023-02-08T02:47:27;-2.10;42.70
47576;DHT22;33304;52.456;13.328;2023-02-08T02:50:02;-2.10;42.40
47576;DHT22;33304;52.456;13.328;2023-02-08T02:52:34;-2.10;42.50
47576;DHT22;33304;52.456;13.328;2023-02-08T02:55:07;-2.00;43.00
47576;DHT22;33304;52.456;13.328;2023-02-08T02:57:36;-2.10;42.00
47576;DHT22;33304;52.456;13.328;2023-02-08T03:00:06;-2.20;42.20
47576;DHT22;33304;52.456;13.328;2023-02-08T03:02:35;-2.30;43.10
47576;DHT22;33304;52.456;13.328;2023-02-08T03:05:05;-2.50;43.20
47576;DHT22;33304;52.456;13.328;2023-02-08T03:07:51;-2.50;44.80
47576;DHT22;33304;52.456;13.328;2023-02-08T03:10:33;-2.40;44.90
47576;DHT22;33304;52.456;13.328;2023-02-08T03:13:05;-2.40;44.90
47576;DHT22;33304;52.456;13.328;2023-02-08T03:15:41;-2.40;44.90
47576;DHT22;33304;52.456;13.328;2023-02-08T03:18:20;-2.30;44.90
47576;DHT22;33304;52.456;13.328;2023-02-08T03:20:56;-2.40;44.90
47576;DHT22;33304;52.456;13.328;2023-02-08T03:23:28;-2.40;44.90
47576;DHT22;33304;52.456;13.328;2023-02-08T03:26:02;-2.40;44.90
47576;DHT22;33304;52.456;13.328;2023-02-08T03:28:36;-2.50;44.80
47576;DHT22;33304;52.456;13.328;2023-02-08T03:31:09;-2.40;44.90
47576;DHT22;33304;52.456;13.328;2023-02-08T03:33:44;-2.50;44.80
47576;DHT22;33304;52.456;13.328;2023-02-08T03:36:19;-2.50;44.80
47576;DHT22;33304;52.456;13.328;2023-02-08T03:38:49;-2.50;44.80
47576;DHT22;33304;52.456;13.328;2023-02-08T03:41:23;-2.40;44.90
47576;DHT22;33304;52.456;13.328;2023-02-08T03:43:57;-2.30;44.90
47576;DHT22;33304;52.456;13.328;2023-02-08T03:46:29;-2.30;44.50
47576;DHT22;33304;52.456;13.328;2023-02-08T03:49:02;-2.40;44.80
47576;DHT22;33304;52.456;13.328;2023-02-08T03:51:32;-2.40;44.90
47576;DHT22;33304;52.456;13.328;2023-02-08T03:54:02;-2.30;44.90
47576;DHT22;33304;52.456;13.328;2023-02-08T03:56:34;-2.30;44.90
47576;DHT22;33304;52.456;13.328;2023-02-08T03:59:07;-2.40;44.90
47576;DHT22;33304;52.456;13.328;2023-02-08T04:01:40;-2.30;44.90
47576;DHT22;33304;52.456;13.328;2023-02-08T04:04:10;-2.30;44.90
47576;DHT22;33304;52.456;13.328;2023-02-08T04:06:38;-2.20;45.00
47576;DHT22;33304;52.456;13.328;2023-02-08T04:09:05;-1.90;42.60
47576;DHT22;33304;52.456;13.328;2023-02-08T04:11:32;-1.90;41.40
47576;DHT22;33304;52.456;13.328;2023-02-08T04:13:59;-2.00;40.90
47576;DHT22;33304;52.456;13.328;2023-02-08T04:16:26;-2.10;41.80
47576;DHT22;33304;52.456;13.328;2023-02-08T04:18:53;-2.10;41.60
47576;DHT22;33304;52.456;13.328;2023-02-08T04:21:22;-2.10;41.50
47576;DHT22;33304;52.456;13.328;2023-02-08T04:23:49;-2.00;40.90
47576;DHT22;33304;52.456;13.328;2023-02-08T04:26:16;-2.10;40.20
47576;DHT22;33304;52.456;13.328;2023-02-08T04:28:43;-2.10;40.60
47576;DHT22;33304;52.456;13.328;2023-02-08T04:31:10;-2.10;40.60
47576;DHT22;33304;52.456;13.328;2023-02-08T04:33:37;-2.20;40.80
47576;DHT22;33304;52.456;13.328;2023-02-08T04:36:04;-2.20;40.50
47576;DHT22;33304;52.456;13.328;2023-02-08T04:38:33;-2.00;39.70
47576;DHT22;33304;52.456;13.328;2023-02-08T04:41:00;-2.00;39.20
47576;DHT22;33304;52.456;13.328;2023-02-08T04:43:27;-2.10;39.00
47576;DHT22;33304;52.456;13.328;2023-02-08T04:45:54;-2.10;39.60
47576;DHT22;33304;52.456;13.328;2023-02-08T04:48:21;-2.00;38.80
47576;DHT22;33304;52.456;13.328;2023-02-08T04:50:48;-2.00;39.00
47576;DHT22;33304;52.456;13.328;2023-02-08T04:53:15;-2.00;38.90
47576;DHT22;33304;52.456;13.328;2023-02-08T04:55:44;-2.00;38.50
47576;DHT22;33304;52.456;13.328;2023-02-08T04:58:11;-1.90;38.70
47576;DHT22;33304;52.456;13.328;2023-02-08T05:00:38;-2.00;38.10
47576;DHT22;33304;52.456;13.328;2023-02-08T05:03:05;-2.00;38.50
47576;DHT22;33304;52.456;13.328;2023-02-08T05:05:32;-1.90;38.70
47576;DHT22;33304;52.456;13.328;2023-02-08T05:07:59;-2.10;39.40
47576;DHT22;33304;52.456;13.328;2023-02-08T05:10:26;-2.10;39.60
47576;DHT22;33304;52.456;13.328;2023-02-08T05:12:55;-2.00;39.20
47576;DHT22;33304;52.456;13.328;2023-02-08T05:15:22;-2.10;38.90
47576;DHT22;33304;52.456;13.328;2023-02-08T05:17:49;-2.10;39.60
47576;DHT22;33304;52.456;13.328;2023-02-08T05:20:16;-2.10;39.00
47576;DHT22;33304;52.456;13.328;2023-02-08T05:22:43;-2.10;38.80
47576;DHT22;33304;52.456;13.328;2023-02-08T05:25:10;-2.10;39.20
47576;DHT22;33304;52.456;13.328;2023-02-08T05:27:37;-2.10;39.10
47576;DHT22;33304;52.456;13.328;2023-02-08T05:30:07;-2.20;38.60
47576;DHT22;33304;52.456;13.328;2023-02-08T05:32:34;-2.20;38.90
47576;DHT22;33304;52.456;13.328;2023-02-08T05:35:01;-2.40;38.90
47576;DHT22;33304;52.456;13.328;2023-02-08T05:37:28;-2.60;40.00
47576;DHT22;33304;52.456;13.328;2023-02-08T05:39:55;-2.60;40.60
47576;DHT22;33304;52.456;13.328;2023-02-08T05:42:22;-2.70;40.80
47576;DHT22;33304;52.456;13.328;2023-02-08T05:44:49;-2.70;42.10
47576;DHT22;33304;52.456;13.328;2023-02-08T05:47:18;-2.70;41.50
47576;DHT22;33304;52.456;13.328;2023-02-08T05:49:45;-2.70;41.40
47576;DHT22;33304;52.456;13.328;2023-02-08T05:52:12;-2.80;41.50
47576;DHT22;33304;52.456;13.328;2023-02-08T05:54:39;-2.70;42.20
47576;DHT22;33304;52.456;13.328;2023-02-08T05:57:06;-2.80;41.90
47576;DHT22;33304;52.456;13.328;2023-02-08T05:59:33;-2.70;41.70
47576;DHT22;33304;52.456;13.328;2023-02-08T06:02:00;-2.70;41.70
47576;DHT22;33304;52.456;13.328;2023-02-08T06:04:29;-2.80;41.70
47576;DHT22;33304;52.456;13.328;2023-02-08T06:06:56;-2.90;41.90
47576;DHT22;33304;52.456;13.328;2023-02-08T06:09:23;-3.00;42.20
47576;DHT22;33304;52.456;13.328;2023-02-08T06:11:50;-3.00;42.90
47576;DHT22;33304;52.456;13.328;2023-02-08T06:14:17;-2.90;43.10
47576;DHT22;33304;52.456;13.328;2023-02-08T06:16:44;-3.00;43.00
47576;DHT22;33304;52.456;13.328;2023-02-08T06:19:11;-2.90;42.60
47576;DHT22;33304;52.456;13.328;2023-02-08T06:21:40;-2.90;42.50
47576;DHT22;33304;52.456;13.328;2023-02-08T06:24:08;-3.00;42.50
47576;DHT22;33304;52.456;13.328;2023-02-08T06:26:36;-3.00;42.20
47576;DHT22;33304;52.456;13.328;2023-02-08T06:29:03;-3.00;42.80
47576;DHT22;33304;52.456;13.328;2023-02-08T06:31:30;-2.90;42.20
47576;DHT22;33304;52.456;13.328;2023-02-08T06:33:57;-2.90;42.20
47576;DHT22;33304;52.456;13.328;2023-02-08T06:36:24;-2.90;42.70
47576;DHT22;33304;52.456;13.328;2023-02-08T06:38:52;-2.90;42.20
47576;DHT22;33304;52.456;13.328;2023-02-08T06:41:20;-2.90;42.60
47576;DHT22;33304;52.456;13.328;2023-02-08T06:43:47;-2.80;42.50
47576;DHT22;33304;52.456;13.328;2023-02-08T06:46:14;-2.90;42.10
47576;DHT22;33304;52.456;13.328;2023-02-08T06:48:41;-2.90;42.50
47576;DHT22;33304;52.456;13.328;2023-02-08T06:51:08;-2.70;42.40
47576;DHT22;33304;52.456;13.328;2023-02-08T06:53:35;-2.80;41.60
47576;DHT22;33304;52.456;13.328;2023-02-08T06:56:04;-2.80;41.90
47576;DHT22;33304;52.456;13.328;2023-02-08T06:58:31;-2.70;41.20
47576;DHT22;33304;52.456;13.328;2023-02-08T07:00:58;-2.70;41.50
47576;DHT22;33304;52.456;13.328;2023-02-08T07:03:25;-2.70;41.60
47576;DHT22;33304;52.456;13.328;2023-02-08T07:05:52;-2.80;41.00
47576;DHT22;33304;52.456;13.328;2023-02-08T07:08:19;-2.80;41.70
47576;DHT22;33304;52.456;13.328;2023-02-08T07:10:46;-2.70;41.30
47576;DHT22;33304;52.456;13.328;2023-02-08T07:13:14;-2.80;41.10
47576;DHT22;33304;52.456;13.328;2023-02-08T07:15:41;-3.00;41.30
47576;DHT22;33304;52.456;13.328;2023-02-08T07:18:08;-2.90;41.80
47576;DHT22;33304;52.456;13.328;2023-02-08T07:20:35;-2.80;41.80
47576;DHT22;33304;52.456;13.328;2023-02-08T07:23:02;-2.80;41.70
47576;DHT22;33304;52.456;13.328;2023-02-08T07:25:29;-3.00;41.50
47576;DHT22;33304;52.456;13.328;2023-02-08T07:27:56;-3.00;41.80
47576;DHT22;33304;52.456;13.328;2023-02-08T07:30:25;-3.00;42.00
47576;DHT22;33304;52.456;13.328;2023-02-08T07:32:52;-3.10;41.70
47576;DHT22;33304;52.456;13.328;2023-02-08T07:35:19;-3.00;42.30
47576;DHT22;33304;52.456;13.328;2023-02-08T07:37:46;-2.90;41.70
47576;DHT22;33304;52.456;13.328;2023-02-08T07:40:13;-2.80;42.00
47576;DHT22;33304;52.456;13.328;2023-02-08T07:42:40;-2.90;41.70
47576;DHT22;33304;52.456;13.328;2023-02-08T07:45:18;-2.80;41.90
47576;DHT22;33304;52.456;13.328;2023-02-08T07:47:47;-2.80;41.50
47576;DHT22;33304;52.456;13.328;2023-02-08T07:50:14;-2.70;41.70
47576;DHT22;33304;52.456;13.328;2023-02-08T07:52:42;-2.60;41.40
47576;DHT22;33304;52.456;13.328;2023-02-08T07:55:11;-2.50;40.90
47576;DHT22;33304;52.456;13.328;2023-02-08T07:57:41;-2.50;40.40
47576;DHT22;33304;52.456;13.328;2023-02-08T08:00:10;-2.40;39.70
47576;DHT22;33304;52.456;13.328;2023-02-08T08:02:40;-2.40;39.60
47576;DHT22;33304;52.456;13.328;2023-02-08T08:05:09;-2.20;40.10
47576;DHT22;33304;52.456;13.328;2023-02-08T08:07:36;-2.20;39.00
47576;DHT22;33304;52.456;13.328;2023-02-08T08:10:04;-2.00;38.70
47576;DHT22;33304;52.456;13.328;2023-02-08T08:12:31;-2.10;38.60
47576;DHT22;33304;52.456;13.328;2023-02-08T08:14:58;-1.90;37.50
47576;DHT22;33304;52.456;13.328;2023-02-08T08:17:25;-2.00;37.20
47576;DHT22;33304;52.456;13.328;2023-02-08T08:19:52;-1.90;37.60
47576;DHT22;33304;52.456;13.328;2023-02-08T08:22:21;-2.00;37.30
47576;DHT22;33304;52.456;13.328;2023-02-08T08:24:48;-1.80;36.70
47576;DHT22;33304;52.456;13.328;2023-02-08T08:27:15;-1.80;37.30
47576;DHT22;33304;52.456;13.328;2023-02-08T08:29:42;-1.70;36.60
47576;DHT22;33304;52.456;13.328;2023-02-08T08:32:09;-1.70;35.50
47576;DHT22;33304;52.456;13.328;2023-02-08T08:34:36;-1.70;35.10
47576;DHT22;33304;52.456;13.328;2023-02-08T08:37:03;-1.70;36.40
47576;DHT22;33304;52.456;13.328;2023-02-08T08:39:31;-1.50;35.40
47576;DHT22;33304;52.456;13.328;2023-02-08T08:41:59;-1.50;34.90
47576;DHT22;33304;52.456;13.328;2023-02-08T08:44:26;-1.50;35.20
47576;DHT22;33304;52.456;13.328;2023-02-08T08:46:54;-1.30;34.60
47576;DHT22;33304;52.456;13.328;2023-02-08T08:49:21;-1.10;34.70
47576;DHT22;33304;52.456;13.328;2023-02-08T08:51:48;-1.20;33.80
47576;DHT22;33304;52.456;13.328;2023-02-08T08:54:16;-1.30;34.30
47576;DHT22;33304;52.456;13.328;2023-02-08T08:56:44;-1.30;34.60
47576;DHT22;33304;52.456;13.328;2023-02-08T08:59:12;-1.30;34.60
47576;DHT22;33304;52.456;13.328;2023-02-08T09:01:39;-1.30;34.60
47576;DHT22;33304;52.456;13.328;2023-02-08T09:04:07;-1.30;34.60
47576;DHT22;33304;52.456;13.328;2023-02-08T09:06:34;-1.20;34.60
47576;DHT22;33304;52.456;13.328;2023-02-08T09:09:02;-1.10;34.80
47576;DHT22;33304;52.456;13.328;2023-02-08T09:11:29;-0.90;34.90
47576;DHT22;33304;52.456;13.328;2023-02-08T09:14:01;-1.00;32.20
47576;DHT22;33304;52.456;13.328;2023-02-08T09:16:28;-1.00;32.10
47576;DHT22;33304;52.456;13.328;2023-02-08T09:18:55;-1.00;32.50
47576;DHT22;33304;52.456;13.328;2023-02-08T09:21:25;-1.00;32.60
47576;DHT22;33304;52.456;13.328;2023-02-08T09:23:52;-1.00;32.90
47576;DHT22;33304;52.456;13.328;2023-02-08T09:26:20;-0.90;31.80
47576;DHT22;33304;52.456;13.328;2023-02-08T09:28:47;-0.90;32.50
47576;DHT22;33304;52.456;13.328;2023-02-08T09:31:18;-0.80;32.50
47576;DHT22;33304;52.456;13.328;2023-02-08T09:33:46;-0.60;32.10
47576;DHT22;33304;52.456;13.328;2023-02-08T09:36:13;-0.30;30.10
47576;DHT22;33304;52.456;13.328;2023-02-08T09:38:41;-0.10;29.60
47576;DHT22;33304;52.456;13.328;2023-02-08T09:41:23;-0.10;29.50
47576;DHT22;33304;52.456;13.328;2023-02-08T09:43:59;-0.20;29.00
47576;DHT22;33304;52.456;13.328;2023-02-08T09:46:36;-0.30;29.00
47576;DHT22;33304;52.456;13.328;2023-02-08T09:49:09;-0.10;28.70
47576;DHT22;33304;52.456;13.328;2023-02-08T09:51:42;-0.20;28.60
47576;DHT22;33304;52.456;13.328;2023-02-08T09:54:16;-0.10;28.30
47576;DHT22;33304;52.456;13.328;2023-02-08T09:56:46;-0.20;28.40
47576;DHT22;33304;52.456;13.328;2023-02-08T09:59:16;-0.10;27.80
47576;DHT22;33304;52.456;13.328;2023-02-08T10:01:47;0.00;27.80
47576;DHT22;33304;52.456;13.328;2023-02-08T10:04:22;0.10;27.10
47576;DHT22;33304;52.456;13.328;2023-02-08T10:06:51;0.10;27.00
47576;DHT22;33304;52.456;13.328;2023-02-08T10:09:24;0.00;27.00
47576;DHT22;33304;52.456;13.328;2023-02-08T10:12:01;0.20;26.80
47576;DHT22;33304;52.456;13.328;2023-02-08T10:14:42;0.40;26.70
47576;DHT22;33304;52.456;13.328;2023-02-08T10:17:54;0.30;25.70
47576;DHT22;33304;52.456;13.328;2023-02-08T10:20:39;0.30;25.90
47576;DHT22;33304;52.456;13.328;2023-02-08T10:23:19;0.50;25.80
47576;DHT22;33304;52.456;13.328;2023-02-08T10:26:04;0.50;25.90
47576;DHT22;33304;52.456;13.328;2023-02-08T10:28:52;0.50;25.80
47576;DHT22;33304;52.456;13.328;2023-02-08T10:31:29;0.50;25.80
47576;DHT22;33304;52.456;13.328;2023-02-08T10:34:06;0.30;25.70
47576;DHT22;33304;52.456;13.328;2023-02-08T10:36:39;0.50;25.80
47576;DHT22;33304;52.456;13.328;2023-02-08T10:39:14;0.70;26.00
47576;DHT22;33304;52.456;13.328;2023-02-08T10:41:43;0.80;25.40
47576;DHT22;33304;52.456;13.328;2023-02-08T10:44:20;0.80;24.60
47576;DHT22;33304;52.456;13.328;2023-02-08T10:46:55;0.70;24.70
47576;DHT22;33304;52.456;13.328;2023-02-08T10:49:32;0.80;25.40
47576;DHT22;33304;52.456;13.328;2023-02-08T10:52:01;0.70;24.40
47576;DHT22;33304;52.456;13.328;2023-02-08T10:54:28;0.80;25.50
47576;DHT22;33304;52.456;13.328;2023-02-08T10:56:57;0.90;24.40
47576;DHT22;33304;52.456;13.328;2023-02-08T10:59:29;0.70;24.90
47576;DHT22;33304;52.456;13.328;2023-02-08T11:01:57;0.60;25.00
47576;DHT22;33304;52.456;13.328;2023-02-08T11:04:24;0.60;25.90
47576;DHT22;33304;52.456;13.328;2023-02-08T11:06:53;0.90;25.80
47576;DHT22;33304;52.456;13.328;2023-02-08T11:09:25;1.10;25.00
47576;DHT22;33304;52.456;13.328;2023-02-08T11:11:54;1.00;23.90
47576;DHT22;33304;52.456;13.328;2023-02-08T11:14:24;0.80;23.80
47576;DHT22;33304;52.456;13.328;2023-02-08T11:16:53;1.00;24.50
47576;DHT22;33304;52.456;13.328;2023-02-08T11:19:28;1.10;23.20
47576;DHT22;33304;52.456;13.328;2023-02-08T11:21:58;1.00;24.00
47576;DHT22;33304;52.456;13.328;2023-02-08T11:24:31;1.20;24.10
47576;DHT22;33304;52.456;13.328;2023-02-08T11:27:01;1.20;23.60
47576;DHT22;33304;52.456;13.328;2023-02-08T11:29:30;1.10;23.10
47576;DHT22;33304;52.456;13.328;2023-02-08T11:31:59;1.10;23.40
47576;DHT22;33304;52.456;13.328;2023-02-08T11:34:28;1.20;23.10
47576;DHT22;33304;52.456;13.328;2023-02-08T11:37:01;1.30;23.40
47576;DHT22;33304;52.456;13.328;2023-02-08T11:39:34;1.70;22.30
47576;DHT22;33304;52.456;13.328;2023-02-08T11:42:03;1.70;22.00
47576;DHT22;33304;52.456;13.328;2023-02-08T11:44:32;1.50;21.90
47576;DHT22;33304;52.456;13.328;2023-02-08T11:47:01;1.50;22.30
47576;DHT22;33304;52.456;13.328;2023-02-08T11:49:36;1.90;21.80
47576;DHT22;33304;52.456;13.328;2023-02-08T11:52:07;1.90;21.80
47576;DHT22;33304;52.456;13.328;2023-02-08T11:54:44;2.00;21.10
47576;DHT22;33304;52.456;13.328;2023-02-08T11:57:14;2.20;21.40
47576;DHT22;33304;52.456;13.328;2023-02-08T11:59:44;2.10;21.40
47576;DHT22;33304;52.456;13.328;2023-02-08T12:02:34;2.30;20.50
47576;DHT22;33304;52.456;13.328;2023-02-08T12:05:03;2.00;21.20
47576;DHT22;33304;52.456;13.328;2023-02-08T12:07:40;1.80;21.20
47576;DHT22;33304;52.456;13.328;2023-02-08T12:10:23;2.10;21.70
47576;DHT22;33304;52.456;13.328;2023-02-08T12:13:20;2.20;21.10
47576;DHT22;33304;52.456;13.328;2023-02-08T12:15:57;2.30;20.50
47576;DHT22;33304;52.456;13.328;2023-02-08T12:18:38;2.20;21.20
47576;DHT22;33304;52.456;13.328;2023-02-08T12:21:12;2.10;20.90
47576;DHT22;33304;52.456;13.328;2023-02-08T12:23:53;2.20;21.60
47576;DHT22;33304;52.456;13.328;2023-02-08T12:26:32;2.50;20.40
47576;DHT22;33304;52.456;13.328;2023-02-08T12:29:24;2.60;20.10
47576;DHT22;33304;52.456;13.328;2023-02-08T12:32:02;2.90;19.40
47576;DHT22;33304;52.456;13.328;2023-02-08T12:34:46;2.90;19.40
47576;DHT22;33304;52.456;13.328;2023-02-08T12:37:27;3.00;19.90
47576;DHT22;33304;52.456;13.328;2023-02-08T12:40:25;3.20;18.40
47576;DHT22;33304;52.456;13.328;2023-02-08T12:43:25;3.30;18.40
47576;DHT22;33304;52.456;13.328;2023-02-08T12:46:10;3.40;18.40
47576;DHT22;33304;52.456;13.328;2023-02-08T12:48:56;3.40;19.00
47576;DHT22;33304;52.456;13.328;2023-02-08T12:51:33;3.50;17.40
47576;DHT22;33304;52.456;13.328;2023-02-08T12:54:03;3.80;17.50
47576;DHT22;33304;52.456;13.328;2023-02-08T12:56:38;4.00;17.00
47576;DHT22;33304;52.456;13.328;2023-02-08T12:59:09;4.30;15.70
47576;DHT22;33304;52.456;13.328;2023-02-08T13:01:42;4.00;16.20
47576;DHT22;33304;52.456;13.328;2023-02-08T13:04:13;4.00;16.10
47576;DHT22;33304;52.456;13.328;2023-02-08T13:06:42;4.00;16.00
47576;DHT22;33304;52.456;13.328;2023-02-08T13:09:16;3.90;16.40
47576;DHT22;33304;52.456;13.328;2023-02-08T13:11:48;4.30;15.20
47576;DHT22;33304;52.456;13.328;2023-02-08T13:14:25;4.40;15.00
47576;DHT22;33304;52.456;13.328;2023-02-08T13:16:58;4.60;14.90
47576;DHT22;33304;52.456;13.328;2023-02-08T13:19:31;4.60;15.10
47576;DHT22;33304;52.456;13.328;2023-02-08T13:21:59;5.10;14.20
47576;DHT22;33304;52.456;13.328;2023-02-08T13:24:32;5.00;14.20
47576;DHT22;33304;52.456;13.328;2023-02-08T13:27:01;5.10;12.90
47576;DHT22;33304;52.456;13.328;2023-02-08T13:29:32;5.00;13.40
47576;DHT22;33304;52.456;13.328;2023-02-08T13:32:03;5.20;12.70
47576;DHT22;33304;52.456;13.328;2023-02-08T13:34:35;5.50;12.90
47576;DHT22;33304;52.456;13.328;2023-02-08T13:37:15;5.70;12.40
47576;DHT22;33304;52.456;13.328;2023-02-08T13:39:45;5.60;12.60
47576;DHT22;33304;52.456;13.328;2023-02-08T13:42:27;6.20;10.70
47576;DHT22;33304;52.456;13.328;2023-02-08T13:44:56;6.50;10.80
47576;DHT22;33304;52.456;13.328;2023-02-08T13:47:26;7.00;9.80
47576;DHT22;33304;52.456;13.328;2023-02-08T13:49:57;7.30;8.50
47576;DHT22;33304;52.456;13.328;2023-02-08T13:52:45;7.70;7.30
47576;DHT22;33304;52.456;13.328;2023-02-08T13:55:39;7.40;8.50
47576;DHT22;33304;52.456;13.328;2023-02-08T13:58:33;6.90;7.90
47576;DHT22;33304;52.456;13.328;2023-02-08T14:01:13;7.20;8.20
47576;DHT22;33304;52.456;13.328;2023-02-08T14:03:40;7.00;7.70
47576;DHT22;33304;52.456;13.328;2023-02-08T14:06:16;7.20;6.50
47576;DHT22;33304;52.456;13.328;2023-02-08T14:08:53;7.40;7.10
47576;DHT22;33304;52.456;13.328;2023-02-08T14:11:30;7.40;7.30
47576;DHT22;33304;52.456;13.328;2023-02-08T14:14:05;7.40;6.40
47576;DHT22;33304;52.456;13.328;2023-02-08T14:16:34;7.60;5.50
47576;DHT22;33304;52.456;13.328;2023-02-08T14:19:04;7.80;5.80
47576;DHT22;33304;52.456;13.328;2023-02-08T14:21:35;7.80;4.90
47576;DHT22;33304;52.456;13.328;2023-02-08T14:24:06;8.20;5.40
47576;DHT22;33304;52.456;13.328;2023-02-08T14:26:35;8.80;2.90
47576;DHT22;33304;52.456;13.328;2023-02-08T14:29:05;8.70;2.70
47576;DHT22;33304;52.456;13.328;2023-02-08T14:31:38;8.70;2.20
47576;DHT22;33304;52.456;13.328;2023-02-08T14:34:20;8.20;2.90
47576;DHT22;33304;52.456;13.328;2023-02-08T14:36:58;7.60;3.80
47576;DHT22;33304;52.456;13.328;2023-02-08T14:39:27;7.50;4.30
47576;DHT22;33304;52.456;13.328;2023-02-08T14:41:56;6.30;6.40
47576;DHT22;33304;52.456;13.328;2023-02-08T14:45:01;6.40;7.10
47576;DHT22;33304;52.456;13.328;2023-02-08T14:47:53;5.90;7.90
47576;DHT22;33304;52.456;13.328;2023-02-08T14:50:24;5.60;8.80
47576;DHT22;33304;52.456;13.328;2023-02-08T14:52:57;5.10;9.90
47576;DHT22;33304;52.456;13.328;2023-02-08T14:55:28;4.80;10.50
47576;DHT22;33304;52.456;13.328;2023-02-08T14:57:57;5.10;9.90
47576;DHT22;33304;52.456;13.328;2023-02-08T15:00:32;4.90;9.80
47576;DHT22;33304;52.456;13.328;2023-02-08T15:03:00;4.80;10.10
47576;DHT22;33304;52.456;13.328;2023-02-08T15:05:34;4.60;10.60
47576;DHT22;33304;52.456;13.328;2023-02-08T15:08:03;4.40;11.30
47576;DHT22;33304;52.456;13.328;2023-02-08T15:10:32;4.10;12.60
47576;DHT22;33304;52.456;13.328;2023-02-08T15:13:03;4.10;12.20
47576;DHT22;33304;52.456;13.328;2023-02-08T15:15:34;4.10;12.20
47576;DHT22;33304;52.456;13.328;2023-02-08T15:18:03;3.70;13.10
47576;DHT22;33304;52.456;13.328;2023-02-08T15:20:33;3.70;13.10
47576;DHT22;33304;52.456;13.328;2023-02-08T15:23:03;3.60;13.30
47576;DHT22;33304;52.456;13.328;2023-02-08T15:25:32;3.50;13.70
47576;DHT22;33304;52.456;13.328;2023-02-08T15:28:02;3.30;14.20
47576;DHT22;33304;52.456;13.328;2023-02-08T15:30:35;3.20;14.50
47576;DHT22;33304;52.456;13.328;2023-02-08T15:33:09;3.10;14.80
47576;DHT22;33304;52.456;13.328;2023-02-08T15:35:39;3.00;14.90
47576;DHT22;33304;52.456;13.328;2023-02-08T15:38:14;3.00;15.20
47576;DHT22;33304;52.456;13.328;2023-02-08T15:40:42;2.90;15.30
47576;DHT22;33304;52.456;13.328;2023-02-08T15:43:12;2.80;15.50
47576;DHT22;33304;52.456;13.328;2023-02-08T15:45:40;2.70;16.10
47576;DHT22;33304;52.456;13.328;2023-02-08T15:48:09;2.60;16.10
47576;DHT22;33304;52.456;13.328;2023-02-08T15:50:37;2.50;16.50
47576;DHT22;33304;52.456;13.328;2023-02-08T15:53:05;2.40;17.10